createdAt,value
2022-09-28T00:02:23.007Z,12.70
2022-09-28T00:04:56.366Z,12.70
2022-09-28T00:07:31.183Z,12.70
2022-09-28T00:10:05.153Z,12.70
2022-09-28T00:12:38.965Z,12.70
2022-09-28T00:15:12.616Z,12.40
2022-09-28T00:17:46.261Z,12.60
2022-09-28T00:20:22.276Z,12.60
2022-09-28T00:22:58.354Z,12.60
2022-09-28T00:25:32.258Z,12.60
2022-09-28T00:28:06.442Z,12.60
2022-09-28T00:30:39.774Z,12.60
2022-09-28T00:33:13.111Z,12.50
2022-09-28T00:35:47.509Z,12.50
2022-09-28T00:38:22.214Z,12.50
2022-09-28T00:40:56.761Z,12.60
2022-09-28T00:43:30.186Z,12.50
2022-09-28T00:46:11.391Z,12.40
2022-09-28T00:48:57.256Z,12.40
2022-09-28T00:51:32.985Z,12.40
2022-09-28T00:54:10.136Z,12.40
2022-09-28T00:56:48.221Z,12.30
2022-09-28T00:59:24.440Z,12.30
2022-09-28T01:01:57.997Z,12.30
2022-09-28T01:04:32.617Z,12.30
2022-09-28T01:07:06.344Z,12.30
2022-09-28T01:09:42.368Z,12.30
2022-09-28T01:12:16.285Z,12.30
2022-09-28T01:14:51.645Z,12.30
2022-09-28T01:17:34.098Z,12.30
2022-09-28T01:20:57.158Z,12.30
2022-09-28T01:24:01.399Z,12.30
2022-09-28T01:27:11.985Z,12.30
2022-09-28T01:29:55.468Z,12.30
2022-09-28T01:32:43.129Z,12.30
2022-09-28T01:35:29.311Z,12.30
2022-09-28T01:38:08.574Z,12.20
2022-09-28T01:40:43.120Z,12.20
2022-09-28T01:43:24.025Z,12.40
2022-09-28T01:46:05.542Z,12.20
2022-09-28T01:48:47.815Z,12.20
2022-09-28T01:51:35.553Z,12.20
2022-09-28T01:54:14.236Z,12.20
2022-09-28T01:56:53.889Z,12.20
2022-09-28T01:59:32.018Z,12.20
2022-09-28T02:02:13.652Z,12.20
2022-09-28T02:04:54.775Z,12.20
2022-09-28T02:07:39.399Z,12.10
2022-09-28T02:10:19.272Z,12.20
2022-09-28T02:12:58.561Z,12.20
2022-09-28T02:15:41.929Z,12.20
2022-09-28T02:18:15.649Z,12.10
2022-09-28T02:21:01.191Z,12.10
2022-09-28T02:23:40.174Z,12.10
2022-09-28T02:26:21.666Z,12.10
2022-09-28T02:28:55.063Z,12.30
2022-09-28T02:31:30.010Z,12.10
2022-09-28T02:34:07.039Z,12.10
2022-09-28T02:36:40.827Z,12.10
2022-09-28T02:39:16.958Z,12.10
2022-09-28T02:42:02.984Z,12.10
2022-09-28T02:45:03.787Z,12.10
2022-09-28T02:47:59.625Z,12.10
2022-09-28T02:50:48.096Z,12.10
2022-09-28T02:53:58.967Z,12.10
2022-09-28T02:56:56.772Z,12.10
2022-09-28T02:59:50.835Z,12.30
2022-09-28T03:02:32.266Z,12.10
2022-09-28T03:05:20.009Z,12.10
2022-09-28T03:08:01.217Z,12.10
2022-09-28T03:10:42.898Z,12.10
2022-09-28T03:13:19.144Z,12.10
2022-09-28T03:15:52.490Z,12.10
2022-09-28T03:18:25.848Z,12.10
2022-09-28T03:21:01.730Z,12.00
2022-09-28T03:23:35.423Z,12.00
2022-09-28T03:26:09.677Z,12.00
2022-09-28T03:28:42.960Z,12.00
2022-09-28T03:31:16.347Z,12.00
2022-09-28T03:33:49.842Z,12.00
2022-09-28T03:36:24.593Z,12.00
2022-09-28T03:38:59.554Z,12.00
2022-09-28T03:41:33.012Z,12.00
2022-09-28T03:44:06.534Z,12.00
2022-09-28T03:46:39.780Z,12.00
2022-09-28T03:49:13.219Z,12.00
2022-09-28T03:51:48.718Z,12.00
2022-09-28T03:54:21.984Z,11.90
2022-09-28T03:56:55.331Z,12.00
2022-09-28T03:59:28.959Z,11.90
2022-09-28T04:02:02.305Z,12.00
2022-09-28T04:04:35.798Z,12.00
2022-09-28T04:07:10.564Z,12.00
2022-09-28T04:09:45.032Z,12.00
2022-09-28T04:12:18.464Z,12.10
2022-09-28T04:14:52.005Z,12.10
2022-09-28T04:17:25.428Z,12.10
2022-09-28T04:19:59.168Z,12.10
2022-09-28T04:22:34.085Z,12.10
2022-09-28T04:25:08.578Z,12.10
2022-09-28T04:27:59.224Z,12.10
2022-09-28T04:30:33.307Z,12.10
2022-09-28T04:33:06.603Z,12.00
2022-09-28T04:35:39.994Z,12.00
2022-09-28T04:38:14.684Z,12.00
2022-09-28T04:40:50.783Z,12.00
2022-09-28T04:43:24.380Z,12.00
2022-09-28T04:46:01.088Z,12.00
2022-09-28T04:48:34.604Z,12.00
2022-09-28T04:51:08.466Z,12.00
2022-09-28T04:53:43.299Z,12.00
2022-09-28T04:56:19.196Z,12.00
2022-09-28T04:58:52.960Z,11.90
2022-09-28T05:01:26.572Z,11.90
2022-09-28T05:04:00.579Z,11.90
2022-09-28T05:06:33.879Z,11.90
2022-09-28T05:09:09.447Z,11.90
2022-09-28T05:11:43.147Z,11.90
2022-09-28T05:14:16.820Z,11.90
2022-09-28T05:16:50.541Z,11.90
2022-09-28T05:19:23.844Z,11.90
2022-09-28T05:21:58.150Z,11.90
2022-09-28T05:24:33.149Z,11.90
2022-09-28T05:27:06.711Z,11.90
2022-09-28T05:29:40.112Z,12.00
2022-09-28T05:32:13.480Z,12.00
2022-09-28T05:34:46.723Z,11.90
2022-09-28T05:37:20.057Z,12.00
2022-09-28T05:39:54.854Z,12.00
2022-09-28T05:42:28.167Z,11.90
2022-09-28T05:45:03.380Z,12.00
2022-09-28T05:47:39.719Z,12.00
2022-09-28T05:50:15.910Z,12.00
2022-09-28T05:52:50.266Z,12.00
2022-09-28T05:55:27.364Z,12.00
2022-09-28T05:58:01.890Z,12.00
2022-09-28T06:00:38.538Z,12.00
2022-09-28T06:03:14.871Z,12.00
2022-09-28T06:05:48.584Z,12.00
2022-09-28T06:08:22.417Z,12.10
2022-09-28T06:11:01.791Z,12.10
2022-09-28T06:13:35.103Z,12.10
2022-09-28T06:16:10.547Z,12.10
2022-09-28T06:18:43.985Z,12.10
2022-09-28T06:21:17.534Z,12.10
2022-09-28T06:23:50.941Z,12.10
2022-09-28T06:26:25.946Z,12.10
2022-09-28T06:29:00.495Z,12.10
2022-09-28T06:31:34.033Z,12.10
2022-09-28T06:34:07.348Z,12.20
2022-09-28T06:36:41.014Z,12.20
2022-09-28T06:39:14.544Z,12.20
2022-09-28T06:41:49.219Z,12.20
2022-09-28T06:44:22.499Z,12.20
2022-09-28T06:46:57.091Z,12.20
2022-09-28T06:49:30.482Z,12.20
2022-09-28T06:52:03.827Z,12.20
2022-09-28T06:54:37.153Z,12.20
2022-09-28T06:57:12.106Z,12.20
2022-09-28T06:59:45.425Z,12.40
2022-09-28T07:02:19.722Z,12.20
2022-09-28T07:04:53.036Z,12.20
2022-09-28T07:07:27.058Z,12.20
2022-09-28T07:10:00.516Z,12.20
2022-09-28T07:12:36.611Z,12.20
2022-09-28T07:15:12.211Z,12.20
2022-09-28T07:17:58.720Z,12.50
2022-09-28T07:20:48.564Z,12.30
2022-09-28T07:23:27.514Z,12.20
2022-09-28T07:26:08.737Z,12.30
2022-09-28T07:28:44.201Z,12.20
2022-09-28T07:31:17.580Z,12.20
2022-09-28T07:33:52.424Z,12.20
2022-09-28T07:36:25.982Z,12.30
2022-09-28T07:38:59.606Z,12.20
2022-09-28T07:41:32.765Z,12.30
2022-09-28T07:44:07.823Z,12.30
2022-09-28T07:46:41.231Z,12.20
2022-09-28T07:49:16.767Z,12.30
2022-09-28T07:51:50.150Z,12.30
2022-09-28T07:54:23.472Z,12.30
2022-09-28T07:56:56.955Z,12.30
2022-09-28T07:59:31.795Z,12.40
2022-09-28T08:02:05.264Z,12.20
2022-09-28T08:04:45.598Z,12.20
2022-09-28T08:07:23.692Z,12.00
2022-09-28T08:09:57.544Z,12.20
2022-09-28T08:12:30.955Z,12.30
2022-09-28T08:15:10.305Z,12.20
2022-09-28T08:17:48.541Z,12.20
2022-09-28T08:20:39.692Z,12.20
2022-09-28T08:23:13.265Z,12.20
2022-09-28T08:25:49.865Z,12.30
2022-09-28T08:28:24.849Z,12.30
2022-09-28T08:31:02.287Z,12.30
2022-09-28T08:33:36.683Z,12.50
2022-09-28T08:36:11.955Z,12.30
2022-09-28T08:38:45.306Z,12.40
2022-09-28T08:41:34.942Z,12.40
2022-09-28T08:44:24.039Z,12.40
2022-09-28T08:47:08.555Z,12.40
2022-09-28T08:49:48.702Z,12.40
2022-09-28T08:52:28.078Z,12.50
2022-09-28T08:55:08.539Z,12.50
2022-09-28T08:57:49.423Z,12.50
2022-09-28T09:00:30.934Z,12.60
2022-09-28T09:03:13.222Z,12.60
2022-09-28T09:06:04.677Z,12.60
2022-09-28T09:09:00.151Z,12.60
2022-09-28T09:11:58.229Z,12.60
2022-09-28T09:15:39.932Z,12.70
2022-09-28T09:18:32.546Z,12.60
2022-09-28T09:21:16.543Z,12.70
2022-09-28T09:24:06.816Z,12.70
2022-09-28T09:26:42.147Z,12.70
2022-09-28T09:29:33.205Z,12.70
2022-09-28T09:32:32.441Z,12.70
2022-09-28T09:35:33.326Z,12.80
2022-09-28T09:38:30.825Z,12.80
2022-09-28T09:41:23.103Z,12.90
2022-09-28T09:44:21.817Z,12.90
2022-09-28T09:47:06.210Z,12.90
2022-09-28T09:49:46.144Z,12.90
2022-09-28T09:52:28.220Z,12.90
2022-09-28T09:55:30.092Z,13.00
2022-09-28T09:58:12.874Z,13.00
2022-09-28T10:00:51.886Z,13.10
2022-09-28T10:03:30.489Z,13.10
2022-09-28T10:06:10.442Z,13.10
2022-09-28T10:08:50.090Z,13.20
2022-09-28T10:11:32.620Z,13.30
2022-09-28T10:14:08.209Z,13.30
2022-09-28T10:16:42.045Z,13.30
2022-09-28T10:19:17.707Z,13.30
2022-09-28T10:21:52.793Z,13.40
2022-09-28T10:24:32.821Z,13.40
2022-09-28T10:27:12.812Z,13.50
2022-09-28T10:29:55.400Z,13.60
2022-09-28T10:32:39.396Z,13.70
2022-09-28T10:35:26.926Z,13.90
2022-09-28T10:38:04.666Z,13.90
2022-09-28T10:40:47.271Z,14.00
2022-09-28T10:43:28.327Z,14.10
2022-09-28T10:46:06.188Z,14.10
2022-09-28T10:48:53.004Z,14.20
2022-09-28T10:51:42.742Z,14.20
2022-09-28T10:54:19.304Z,14.20
2022-09-28T10:56:55.395Z,14.30
2022-09-28T10:59:41.501Z,14.30
2022-09-28T11:02:25.993Z,14.30
2022-09-28T11:05:02.786Z,14.40
2022-09-28T11:07:48.269Z,14.40
2022-09-28T11:10:28.498Z,14.40
2022-09-28T11:13:02.401Z,14.40
2022-09-28T11:15:46.710Z,14.50
2022-09-28T11:18:28.305Z,14.50
2022-09-28T11:21:12.859Z,14.50
2022-09-28T11:24:05.874Z,14.60
2022-09-28T11:26:43.258Z,14.60
2022-09-28T11:29:33.974Z,14.70
2022-09-28T11:32:15.708Z,14.70
2022-09-28T11:34:59.717Z,14.80
2022-09-28T11:38:04.987Z,14.90
2022-09-28T11:40:58.437Z,15.00
2022-09-28T11:44:05.647Z,15.10
2022-09-28T11:46:53.184Z,15.30
2022-09-28T11:49:40.286Z,15.40
2022-09-28T11:52:23.509Z,15.50
2022-09-28T11:55:03.141Z,15.60
2022-09-28T11:57:43.226Z,15.70
2022-09-28T12:00:22.362Z,15.80
2022-09-28T12:03:06.348Z,15.90
2022-09-28T12:05:48.413Z,16.00
2022-09-28T12:08:28.843Z,16.20
2022-09-28T12:11:09.838Z,16.30
2022-09-28T12:13:48.820Z,16.40
2022-09-28T12:19:30.816Z,16.60
2022-09-28T12:22:17.920Z,16.60
2022-09-28T12:24:58.542Z,16.60
2022-09-28T12:27:41.623Z,16.60
2022-09-28T12:30:19.863Z,16.50
2022-09-28T12:33:03.075Z,16.50
2022-09-28T12:35:56.190Z,16.40
2022-09-28T12:39:19.048Z,16.30
2022-09-28T12:42:14.516Z,16.30
2022-09-28T12:45:18.936Z,16.20
2022-09-28T12:48:53.531Z,16.10
2022-09-28T12:51:51.765Z,16.00
2022-09-28T12:55:04.157Z,16.00
2022-09-28T12:57:50.806Z,15.90
2022-09-28T13:00:32.340Z,15.90
2022-09-28T13:04:02.909Z,15.90
2022-09-28T13:06:51.537Z,15.90
2022-09-28T13:09:29.067Z,15.90
2022-09-28T13:12:35.477Z,15.90
2022-09-28T13:15:47.081Z,16.00
2022-09-28T13:18:30.354Z,16.00
2022-09-28T13:21:32.995Z,16.00
2022-09-28T13:24:31.549Z,16.10
2022-09-28T13:27:14.402Z,16.20
2022-09-28T13:29:51.212Z,16.20
2022-09-28T13:32:26.858Z,16.30
2022-09-28T13:35:02.927Z,16.30
2022-09-28T13:37:36.423Z,16.40
2022-09-28T13:40:11.355Z,16.40
2022-09-28T13:43:19.617Z,16.40
2022-09-28T13:46:09.697Z,16.50
2022-09-28T13:48:58.366Z,16.50
2022-09-28T13:51:50.218Z,16.50
2022-09-28T13:54:52.092Z,16.50
2022-09-28T13:57:36.132Z,16.60
2022-09-28T14:00:21.844Z,16.60
2022-09-28T14:03:05.189Z,16.60
2022-09-28T14:06:08.119Z,16.70
2022-09-28T14:09:06.440Z,16.70
2022-09-28T14:11:44.573Z,16.70
2022-09-28T14:14:51.510Z,16.70
